Alyeska Resort
Max's Hourly Weather Roundup
ALYESKA_MAX 8/29/2016
Click Here for Graph

        DATE  TIME   Air  Wind  Wind  Wind  BATT   Rel
                    Temp   Spd   Dir  Gust  Volt  Hum%
                      F   MPH   AVG   MPH   AVG   AVG

   8/29/2016 22:00    54    17    45    25 13.08    49
   8/29/2016 21:00    56     8    63    23 13.51    58
   8/29/2016 20:00    58     3   157    10 13.94    67
   8/29/2016 19:00    58     2   201     8 13.89    73
   8/29/2016 18:00    58     3   208     9 13.89    75
   8/29/2016 17:00    58     5   202    10 13.85    77
   8/29/2016 16:00    58     4   191    11 13.78    78
   8/29/2016 15:00    57     3   198     9 13.71    76
   8/29/2016 14:00    56     2   197     9 13.67    79
   8/29/2016 13:00    55     3   161     7 13.63    84
   8/29/2016 12:00    53     2   164     7 13.61    86
   8/29/2016 11:00    51     3   158     7 13.59    84
   8/29/2016 10:00    52     2   134     5 13.59    82
   8/29/2016 09:00    52     0    87     4 13.55    85
   8/29/2016 08:00    50     1   217     4 13.05    89
   8/29/2016 07:00    50     3   143     7 12.80    87
   8/29/2016 06:00    50     5   136     7 12.81    88
   8/29/2016 05:00    52     3   157     8 12.83    84
   8/29/2016 04:00    53     2   212     4 12.85    77
   8/29/2016 03:00    55     3   264     5 12.87    64
   8/29/2016 02:00    55     3           7 12.90    62
   8/29/2016 01:00    56     4   300     8 12.92    60
   8/28/2016 24:00    56     5    43    11 12.94    58
   8/28/2016 23:00    57     6    54    10 12.99    60


Click Here for Graph